WAT693 KELP-KHSV
Flight info
| Callsign | WAT693 |
|---|---|
| Flight time | 2h 2m |
| Altitude | 33000 |
| Route | TDOWN3 SFL |
| Aircraft | E75L/M-SDE3GILORVW/S |
Departure
| Time | 2026-05-08 11:45 |
|---|---|
| Airport | El Paso International Airport (KELP) |
Arrival
| Time | 2026-05-08 13:48 |
|---|---|
| Airport | Huntsville International Airport (KHSV) |
| Time | Latitude | Longitude | Altitude | Speed | Heading |
|---|---|---|---|---|---|
| 2026-05-08 09:46 | 31.80063 | -106.39389 | 3925 ft | 0 kts | 175° |
| 2026-05-08 11:33 | 31.80076 | -106.39391 | 3925 ft | 2 kts | 175° |
| 2026-05-08 11:34 | 31.80091 | -106.39392 | 3925 ft | 2 kts | 175° |
| 2026-05-08 11:34 | 31.80101 | -106.39393 | 3925 ft | 2 kts | 173° |
| 2026-05-08 11:34 | 31.80115 | -106.39398 | 3925 ft | 2 kts | 154° |
| 2026-05-08 11:34 | 31.80128 | -106.39408 | 3925 ft | 2 kts | 136° |
| 2026-05-08 11:35 | 31.80137 | -106.39423 | 3924 ft | 2 kts | 117° |
| 2026-05-08 11:35 | 31.80142 | -106.39439 | 3924 ft | 2 kts | 99° |
| 2026-05-08 11:35 | 31.80142 | -106.39448 | 3924 ft | 0 kts | 92° |
| 2026-05-08 11:37 | 31.80142 | -106.39434 | 3924 ft | 3 kts | 92° |
| 2026-05-08 11:38 | 31.80154 | -106.39396 | 3925 ft | 6 kts | 46° |
| 2026-05-08 11:38 | 31.80194 | -106.39356 | 3925 ft | 8 kts | 39° |
| 2026-05-08 11:38 | 31.80246 | -106.39305 | 3926 ft | 10 kts | 40° |
| 2026-05-08 11:38 | 31.80307 | -106.39240 | 3926 ft | 12 kts | 43° |
| 2026-05-08 11:39 | 31.80375 | -106.39166 | 3927 ft | 14 kts | 43° |
| 2026-05-08 11:39 | 31.80454 | -106.39080 | 3928 ft | 16 kts | 43° |
| 2026-05-08 11:39 | 31.80550 | -106.38975 | 3929 ft | 20 kts | 43° |
| 2026-05-08 11:39 | 31.80662 | -106.38852 | 3930 ft | 23 kts | 43° |
| 2026-05-08 11:40 | 31.80788 | -106.38715 | 3932 ft | 25 kts | 44° |
| 2026-05-08 11:40 | 31.80915 | -106.38550 | 3933 ft | 28 kts | 50° |
| 2026-05-08 11:40 | 31.81046 | -106.38367 | 3935 ft | 29 kts | 50° |
| 2026-05-08 11:40 | 31.81185 | -106.38173 | 3937 ft | 31 kts | 49° |
| 2026-05-08 11:41 | 31.81328 | -106.37974 | 3939 ft | 30 kts | 51° |
| 2026-05-08 11:41 | 31.81464 | -106.37783 | 3941 ft | 29 kts | 50° |
| 2026-05-08 11:41 | 31.81597 | -106.37599 | 3944 ft | 28 kts | 50° |
| 2026-05-08 11:41 | 31.81721 | -106.37424 | 3948 ft | 27 kts | 50° |
| 2026-05-08 11:42 | 31.81842 | -106.37255 | 3950 ft | 25 kts | 50° |
| 2026-05-08 11:42 | 31.81954 | -106.37099 | 3953 ft | 24 kts | 51° |
| 2026-05-08 11:42 | 31.82059 | -106.36952 | 3955 ft | 17 kts | 50° |
| 2026-05-08 11:42 | 31.82129 | -106.36898 | 3955 ft | 9 kts | 342° |
| 2026-05-08 11:43 | 31.82185 | -106.36948 | 3955 ft | 10 kts | 320° |
| 2026-05-08 11:43 | 31.82239 | -106.37003 | 3954 ft | 10 kts | 320° |
| 2026-05-08 11:43 | 31.82246 | -106.37067 | 3954 ft | 7 kts | 232° |
| 2026-05-08 11:43 | 31.82242 | -106.37073 | 3954 ft | 0 kts | 231° |
| 2026-05-08 11:44 | 31.82132 | -106.37229 | 3952 ft | 64 kts | 230° |
| 2026-05-08 11:44 | 31.81664 | -106.37879 | 3941 ft | 140 kts | 230° |
| 2026-05-08 11:45 | 31.80888 | -106.38964 | 4002 ft | 194 kts | 230° |
| 2026-05-08 11:45 | 31.79954 | -106.40276 | 4541 ft | 219 kts | 230° |
| 2026-05-08 11:45 | 31.78732 | -106.41434 | 5239 ft | 239 kts | 202° |
| 2026-05-08 11:45 | 31.77033 | -106.41551 | 5437 ft | 246 kts | 162° |
| 2026-05-08 11:46 | 31.75664 | -106.40376 | 5746 ft | 246 kts | 123° |
| 2026-05-08 11:46 | 31.75141 | -106.38436 | 6263 ft | 264 kts | 101° |
| 2026-05-08 11:46 | 31.74460 | -106.36567 | 8292 ft | 255 kts | 116° |
| 2026-05-08 11:46 | 31.73586 | -106.34609 | 9259 ft | 288 kts | 118° |
| 2026-05-08 11:47 | 31.72592 | -106.32523 | 10665 ft | 300 kts | 115° |
| 2026-05-08 11:47 | 31.72212 | -106.30132 | 11973 ft | 309 kts | 86° |
| 2026-05-08 11:47 | 31.72328 | -106.27593 | 13350 ft | 316 kts | 88° |
| 2026-05-08 11:47 | 31.72403 | -106.24995 | 14555 ft | 325 kts | 86° |
| 2026-05-08 11:48 | 31.72960 | -106.22419 | 15675 ft | 335 kts | 62° |
| 2026-05-08 11:48 | 31.74217 | -106.20077 | 16926 ft | 345 kts | 58° |
| 2026-05-08 11:48 | 31.75483 | -106.17624 | 17992 ft | 365 kts | 58° |
| 2026-05-08 11:48 | 31.76889 | -106.14923 | 18722 ft | 399 kts | 59° |
| 2026-05-08 11:49 | 31.78302 | -106.12097 | 20123 ft | 409 kts | 65° |
| 2026-05-08 11:49 | 31.79026 | -106.08849 | 21254 ft | 419 kts | 89° |
| 2026-05-08 11:49 | 31.78892 | -106.05423 | 22521 ft | 427 kts | 94° |
| 2026-05-08 11:49 | 31.78857 | -106.01865 | 23701 ft | 438 kts | 94° |
| 2026-05-08 11:50 | 31.78807 | -105.98251 | 24873 ft | 449 kts | 93° |
| 2026-05-08 11:50 | 31.78761 | -105.94538 | 25950 ft | 462 kts | 94° |
| 2026-05-08 11:50 | 31.78714 | -105.90725 | 26999 ft | 474 kts | 94° |
| 2026-05-08 11:50 | 31.78663 | -105.86807 | 27980 ft | 485 kts | 94° |
| 2026-05-08 11:51 | 31.78610 | -105.82758 | 28908 ft | 495 kts | 95° |
| 2026-05-08 11:51 | 31.78556 | -105.78653 | 29700 ft | 504 kts | 95° |
| 2026-05-08 11:51 | 31.78500 | -105.74503 | 30378 ft | 511 kts | 95° |
| 2026-05-08 11:51 | 31.78441 | -105.70290 | 30977 ft | 517 kts | 96° |
| 2026-05-08 11:52 | 31.78229 | -105.66063 | 31402 ft | 519 kts | 100° |
| 2026-05-08 11:52 | 31.77968 | -105.61773 | 31791 ft | 521 kts | 99° |
| 2026-05-08 11:52 | 31.77714 | -105.57477 | 31791 ft | 530 kts | 99° |
| 2026-05-08 11:52 | 31.77466 | -105.53165 | 32117 ft | 526 kts | 99° |
| 2026-05-08 11:53 | 31.77217 | -105.48867 | 32459 ft | 525 kts | 99° |
| 2026-05-08 11:53 | 31.76965 | -105.44569 | 32632 ft | 526 kts | 99° |
| 2026-05-08 11:53 | 31.76710 | -105.40232 | 32789 ft | 527 kts | 99° |
| 2026-05-08 11:53 | 31.76457 | -105.35944 | 32909 ft | 527 kts | 99° |
| 2026-05-08 11:54 | 31.76213 | -105.31696 | 32934 ft | 495 kts | 100° |
| 2026-05-08 11:54 | 31.75977 | -105.27706 | 32961 ft | 475 kts | 101° |
| 2026-05-08 11:54 | 31.75741 | -105.23840 | 32978 ft | 472 kts | 101° |
| 2026-05-08 11:54 | 31.75496 | -105.19926 | 32964 ft | 487 kts | 101° |
| 2026-05-08 11:55 | 31.75246 | -105.15855 | 32908 ft | 499 kts | 100° |
| 2026-05-08 11:55 | 31.75116 | -105.07584 | 32849 ft | 519 kts | 83° |
| 2026-05-08 11:56 | 31.77142 | -104.99358 | 32894 ft | 527 kts | 77° |
| 2026-05-08 11:56 | 31.79226 | -104.91061 | 32913 ft | 529 kts | 77° |
| 2026-05-08 11:57 | 31.81298 | -104.82744 | 32953 ft | 530 kts | 77° |
| 2026-05-08 11:57 | 31.83382 | -104.74351 | 33000 ft | 531 kts | 77° |
| 2026-05-08 11:58 | 31.85458 | -104.65964 | 32992 ft | 534 kts | 77° |
| 2026-05-08 11:58 | 31.87549 | -104.57492 | 32960 ft | 536 kts | 77° |
| 2026-05-08 11:59 | 31.90664 | -104.44820 | 32912 ft | 537 kts | 77° |
| 2026-05-08 11:59 | 31.92749 | -104.36304 | 32903 ft | 538 kts | 77° |
| 2026-05-08 12:00 | 31.94832 | -104.27773 | 32894 ft | 537 kts | 78° |
| 2026-05-08 12:00 | 31.96906 | -104.19244 | 32904 ft | 537 kts | 78° |
| 2026-05-08 12:01 | 31.98964 | -104.10758 | 32938 ft | 537 kts | 78° |
| 2026-05-08 12:01 | 32.01024 | -104.02237 | 32987 ft | 537 kts | 78° |
| 2026-05-08 12:02 | 32.03078 | -103.93713 | 33009 ft | 538 kts | 78° |
| 2026-05-08 12:02 | 32.05133 | -103.85158 | 33017 ft | 539 kts | 78° |
| 2026-05-08 12:03 | 32.07167 | -103.76661 | 33021 ft | 539 kts | 78° |
| 2026-05-08 12:03 | 32.09211 | -103.68092 | 33029 ft | 539 kts | 78° |
| 2026-05-08 12:04 | 32.11255 | -103.59495 | 33026 ft | 539 kts | 78° |
| 2026-05-08 12:04 | 32.13278 | -103.50963 | 33040 ft | 538 kts | 78° |
| 2026-05-08 12:05 | 32.15304 | -103.42392 | 33044 ft | 538 kts | 78° |
| 2026-05-08 12:05 | 32.17313 | -103.33865 | 33039 ft | 538 kts | 78° |
| 2026-05-08 12:06 | 32.19326 | -103.25285 | 33028 ft | 537 kts | 78° |
| 2026-05-08 12:06 | 32.21333 | -103.16706 | 33030 ft | 537 kts | 78° |
| 2026-05-08 12:07 | 32.23318 | -103.08190 | 33035 ft | 537 kts | 78° |
| 2026-05-08 12:07 | 32.25313 | -102.99608 | 33041 ft | 537 kts | 78° |
| 2026-05-08 12:08 | 32.27298 | -102.91040 | 33030 ft | 538 kts | 78° |
| 2026-05-08 12:08 | 32.29274 | -102.82481 | 33014 ft | 539 kts | 78° |
| 2026-05-08 12:09 | 32.31267 | -102.73823 | 33018 ft | 540 kts | 78° |
| 2026-05-08 12:09 | 32.33237 | -102.65229 | 33031 ft | 541 kts | 78° |
| 2026-05-08 12:10 | 32.35214 | -102.56579 | 33036 ft | 542 kts | 78° |
| 2026-05-08 12:10 | 32.37183 | -102.47935 | 33038 ft | 543 kts | 78° |
| 2026-05-08 12:11 | 32.39150 | -102.39261 | 33038 ft | 544 kts | 78° |
| 2026-05-08 12:11 | 32.41129 | -102.30519 | 33020 ft | 545 kts | 78° |
| 2026-05-08 12:12 | 32.43093 | -102.21805 | 33021 ft | 546 kts | 79° |
| 2026-05-08 12:12 | 32.45050 | -102.13090 | 33024 ft | 546 kts | 79° |
| 2026-05-08 12:13 | 32.47002 | -102.04365 | 33030 ft | 547 kts | 79° |
| 2026-05-08 12:13 | 32.48967 | -101.95557 | 33034 ft | 548 kts | 79° |
| 2026-05-08 12:14 | 32.50915 | -101.86784 | 33034 ft | 548 kts | 79° |
| 2026-05-08 12:14 | 32.52866 | -101.77975 | 33033 ft | 549 kts | 79° |
| 2026-05-08 12:15 | 32.54808 | -101.69173 | 33032 ft | 549 kts | 79° |
| 2026-05-08 12:15 | 32.56744 | -101.60368 | 33033 ft | 549 kts | 78° |
| 2026-05-08 12:16 | 32.57985 | -101.54688 | 33037 ft | 547 kts | 78° |
| 2026-05-08 12:16 | 32.58209 | -101.53666 | 33038 ft | 547 kts | 78° |
| 2026-05-08 12:17 | 32.60117 | -101.44928 | 33043 ft | 542 kts | 78° |
| 2026-05-08 12:17 | 32.62017 | -101.36220 | 33040 ft | 541 kts | 77° |
| 2026-05-08 12:18 | 32.63911 | -101.27494 | 33025 ft | 540 kts | 78° |
| 2026-05-08 12:18 | 32.65781 | -101.18832 | 33024 ft | 540 kts | 78° |
| 2026-05-08 12:19 | 32.67651 | -101.10148 | 33026 ft | 540 kts | 78° |
| 2026-05-08 12:19 | 32.69514 | -101.01471 | 33031 ft | 540 kts | 78° |
| 2026-05-08 12:20 | 32.71376 | -100.92760 | 33036 ft | 540 kts | 78° |
| 2026-05-08 12:20 | 32.73229 | -100.84059 | 33039 ft | 540 kts | 78° |
| 2026-05-08 12:21 | 32.75077 | -100.75351 | 33041 ft | 540 kts | 78° |
| 2026-05-08 12:21 | 32.76911 | -100.66676 | 33040 ft | 540 kts | 78° |
| 2026-05-08 12:22 | 32.78748 | -100.57957 | 33039 ft | 540 kts | 78° |
| 2026-05-08 12:22 | 32.80571 | -100.49272 | 33038 ft | 540 kts | 78° |
| 2026-05-08 12:23 | 32.82404 | -100.40505 | 33040 ft | 540 kts | 78° |
| 2026-05-08 12:23 | 32.82829 | -100.38470 | 33040 ft | 540 kts | 78° |
| 2026-05-08 12:24 | 32.83251 | -100.36445 | 32994 ft | 540 kts | 78° |
| 2026-05-08 12:24 | 32.85058 | -100.27758 | 33025 ft | 535 kts | 79° |
| 2026-05-08 12:25 | 32.86846 | -100.19123 | 33024 ft | 534 kts | 79° |
| 2026-05-08 12:25 | 32.88625 | -100.10506 | 33031 ft | 533 kts | 79° |
| 2026-05-08 12:26 | 32.90398 | -100.01884 | 33038 ft | 534 kts | 79° |
| 2026-05-08 12:26 | 32.92166 | -99.93256 | 33035 ft | 534 kts | 79° |
| 2026-05-08 12:27 | 32.93935 | -99.84586 | 33030 ft | 534 kts | 78° |
| 2026-05-08 12:27 | 32.95701 | -99.75899 | 33028 ft | 535 kts | 78° |
| 2026-05-08 12:28 | 32.97460 | -99.67218 | 33030 ft | 536 kts | 78° |
| 2026-05-08 12:28 | 32.99210 | -99.58546 | 33031 ft | 536 kts | 78° |
| 2026-05-08 12:29 | 33.00957 | -99.49854 | 33034 ft | 536 kts | 78° |
| 2026-05-08 12:29 | 33.02702 | -99.41142 | 33037 ft | 537 kts | 78° |
| 2026-05-08 12:30 | 33.04449 | -99.32383 | 33025 ft | 537 kts | 79° |
| 2026-05-08 12:30 | 33.06191 | -99.23616 | 33018 ft | 537 kts | 79° |
| 2026-05-08 12:31 | 33.07923 | -99.14867 | 33018 ft | 537 kts | 79° |
| 2026-05-08 12:31 | 33.09640 | -99.06154 | 33021 ft | 537 kts | 79° |
| 2026-05-08 12:32 | 33.11371 | -98.97343 | 33015 ft | 537 kts | 79° |
| 2026-05-08 12:32 | 33.13079 | -98.88607 | 33016 ft | 538 kts | 79° |
| 2026-05-08 12:33 | 33.14783 | -98.79862 | 33015 ft | 539 kts | 79° |
| 2026-05-08 12:33 | 33.16494 | -98.71041 | 33016 ft | 539 kts | 79° |
| 2026-05-08 12:34 | 33.18196 | -98.62237 | 33017 ft | 540 kts | 79° |
| 2026-05-08 12:34 | 33.19889 | -98.53444 | 33017 ft | 541 kts | 79° |
| 2026-05-08 12:35 | 33.21585 | -98.44591 | 33018 ft | 542 kts | 79° |
| 2026-05-08 12:35 | 33.23272 | -98.35755 | 33018 ft | 542 kts | 79° |
| 2026-05-08 12:36 | 33.24969 | -98.26834 | 33005 ft | 542 kts | 79° |
| 2026-05-08 12:36 | 33.26652 | -98.17944 | 33009 ft | 542 kts | 79° |
| 2026-05-08 12:37 | 33.28319 | -98.09105 | 33015 ft | 542 kts | 79° |
| 2026-05-08 12:37 | 33.29981 | -98.00253 | 33023 ft | 543 kts | 79° |
| 2026-05-08 12:38 | 33.31644 | -97.91359 | 33028 ft | 543 kts | 79° |
| 2026-05-08 12:38 | 33.33310 | -97.82414 | 33035 ft | 544 kts | 79° |
| 2026-05-08 12:39 | 33.34962 | -97.73505 | 33042 ft | 546 kts | 80° |
| 2026-05-08 12:39 | 33.36615 | -97.64552 | 33045 ft | 547 kts | 80° |
| 2026-05-08 12:40 | 33.38259 | -97.55609 | 33044 ft | 548 kts | 80° |
| 2026-05-08 12:40 | 33.39903 | -97.46633 | 33043 ft | 548 kts | 80° |
| 2026-05-08 12:41 | 33.41552 | -97.37582 | 33043 ft | 548 kts | 80° |
| 2026-05-08 12:41 | 33.43182 | -97.28612 | 33024 ft | 548 kts | 81° |
| 2026-05-08 12:42 | 33.44819 | -97.19546 | 33028 ft | 548 kts | 81° |
| 2026-05-08 12:42 | 33.46437 | -97.10553 | 33033 ft | 548 kts | 81° |
| 2026-05-08 12:43 | 33.48045 | -97.01574 | 33039 ft | 549 kts | 81° |
| 2026-05-08 12:43 | 33.49656 | -96.92542 | 33044 ft | 550 kts | 81° |
| 2026-05-08 12:44 | 33.51265 | -96.83473 | 33048 ft | 551 kts | 81° |
| 2026-05-08 12:44 | 33.52866 | -96.74414 | 33051 ft | 552 kts | 81° |
| 2026-05-08 12:45 | 33.54466 | -96.65320 | 33056 ft | 553 kts | 81° |
| 2026-05-08 12:45 | 33.56061 | -96.56216 | 33060 ft | 554 kts | 81° |
| 2026-05-08 12:46 | 33.57648 | -96.47109 | 33064 ft | 555 kts | 81° |
| 2026-05-08 12:46 | 33.59244 | -96.37913 | 33066 ft | 557 kts | 81° |
| 2026-05-08 12:47 | 33.60833 | -96.28725 | 33045 ft | 557 kts | 81° |
| 2026-05-08 12:47 | 33.62418 | -96.19504 | 33049 ft | 558 kts | 81° |
| 2026-05-08 12:48 | 33.63982 | -96.10358 | 33051 ft | 559 kts | 81° |
| 2026-05-08 12:48 | 33.65561 | -96.01086 | 33054 ft | 559 kts | 81° |
| 2026-05-08 12:49 | 33.67124 | -95.91872 | 33058 ft | 560 kts | 81° |
| 2026-05-08 12:49 | 33.68685 | -95.82622 | 33060 ft | 561 kts | 81° |
| 2026-05-08 12:50 | 33.70249 | -95.73306 | 33064 ft | 561 kts | 81° |
| 2026-05-08 12:50 | 33.71797 | -95.64044 | 33069 ft | 561 kts | 81° |
| 2026-05-08 12:51 | 33.74108 | -95.50130 | 33074 ft | 562 kts | 81° |
| 2026-05-08 12:52 | 33.75642 | -95.40836 | 33076 ft | 562 kts | 81° |
| 2026-05-08 12:52 | 33.77937 | -95.26857 | 33059 ft | 561 kts | 82° |
| 2026-05-08 12:53 | 33.79448 | -95.17576 | 33060 ft | 560 kts | 81° |
| 2026-05-08 12:53 | 33.80960 | -95.08260 | 33065 ft | 560 kts | 81° |
| 2026-05-08 12:54 | 33.82458 | -94.98984 | 33069 ft | 560 kts | 81° |
| 2026-05-08 12:54 | 33.83948 | -94.89713 | 33073 ft | 560 kts | 81° |
| 2026-05-08 12:55 | 33.85429 | -94.80442 | 33076 ft | 560 kts | 81° |
| 2026-05-08 12:55 | 33.86908 | -94.71138 | 33080 ft | 561 kts | 81° |
| 2026-05-08 12:56 | 33.88383 | -94.61818 | 33082 ft | 562 kts | 81° |
| 2026-05-08 12:56 | 33.89853 | -94.52482 | 33083 ft | 563 kts | 81° |
| 2026-05-08 12:57 | 33.91320 | -94.43117 | 33082 ft | 564 kts | 81° |
| 2026-05-08 12:57 | 33.92787 | -94.33700 | 33076 ft | 565 kts | 81° |
| 2026-05-08 12:58 | 33.94249 | -94.24264 | 33059 ft | 565 kts | 81° |
| 2026-05-08 12:58 | 33.95697 | -94.14871 | 33055 ft | 566 kts | 81° |
| 2026-05-08 12:59 | 33.97151 | -94.05393 | 33056 ft | 567 kts | 81° |
| 2026-05-08 12:59 | 33.98591 | -93.95953 | 33060 ft | 568 kts | 81° |
| 2026-05-08 13:00 | 34.00023 | -93.86523 | 33063 ft | 568 kts | 81° |
| 2026-05-08 13:00 | 34.01450 | -93.77062 | 33065 ft | 569 kts | 81° |
| 2026-05-08 13:01 | 34.02870 | -93.67603 | 33064 ft | 569 kts | 81° |
| 2026-05-08 13:01 | 34.04291 | -93.58086 | 33065 ft | 569 kts | 81° |
| 2026-05-08 13:02 | 34.05708 | -93.48543 | 33067 ft | 569 kts | 81° |
| 2026-05-08 13:02 | 34.07102 | -93.39095 | 33073 ft | 569 kts | 81° |
| 2026-05-08 13:03 | 34.08505 | -93.29546 | 33060 ft | 568 kts | 81° |
| 2026-05-08 13:03 | 34.09893 | -93.20034 | 33074 ft | 567 kts | 81° |
| 2026-05-08 13:04 | 34.11273 | -93.10529 | 33077 ft | 566 kts | 81° |
| 2026-05-08 13:04 | 34.12633 | -93.01102 | 33083 ft | 565 kts | 81° |
| 2026-05-08 13:05 | 34.13992 | -92.91635 | 33087 ft | 565 kts | 81° |
| 2026-05-08 13:05 | 34.15338 | -92.82207 | 33089 ft | 565 kts | 81° |
| 2026-05-08 13:06 | 34.16679 | -92.72765 | 33089 ft | 565 kts | 81° |
| 2026-05-08 13:06 | 34.18009 | -92.63333 | 33090 ft | 566 kts | 81° |
| 2026-05-08 13:07 | 34.19343 | -92.53823 | 33092 ft | 566 kts | 81° |
| 2026-05-08 13:07 | 34.20666 | -92.44342 | 33095 ft | 566 kts | 81° |
| 2026-05-08 13:08 | 34.21978 | -92.34876 | 33098 ft | 567 kts | 81° |
| 2026-05-08 13:08 | 34.23298 | -92.25312 | 33077 ft | 567 kts | 81° |
| 2026-05-08 13:09 | 34.24598 | -92.15824 | 33077 ft | 567 kts | 81° |
| 2026-05-08 13:09 | 34.25891 | -92.06338 | 33083 ft | 567 kts | 81° |
| 2026-05-08 13:10 | 34.27181 | -91.96815 | 33087 ft | 567 kts | 81° |
| 2026-05-08 13:10 | 34.28463 | -91.87288 | 33091 ft | 568 kts | 81° |
| 2026-05-08 13:11 | 34.29740 | -91.77746 | 33094 ft | 569 kts | 81° |
| 2026-05-08 13:11 | 34.31006 | -91.68222 | 33099 ft | 569 kts | 81° |
| 2026-05-08 13:12 | 34.32270 | -91.58660 | 33103 ft | 569 kts | 81° |
| 2026-05-08 13:12 | 34.33525 | -91.49107 | 33107 ft | 570 kts | 81° |
| 2026-05-08 13:13 | 34.34781 | -91.39484 | 33111 ft | 570 kts | 81° |
| 2026-05-08 13:13 | 34.36018 | -91.29955 | 33087 ft | 570 kts | 82° |
| 2026-05-08 13:14 | 34.37261 | -91.20290 | 33094 ft | 568 kts | 82° |
| 2026-05-08 13:14 | 34.38482 | -91.10765 | 33098 ft | 568 kts | 82° |
| 2026-05-08 13:15 | 34.39700 | -91.01192 | 33103 ft | 568 kts | 82° |
| 2026-05-08 13:15 | 34.40908 | -90.91637 | 33106 ft | 568 kts | 82° |
| 2026-05-08 13:16 | 34.42112 | -90.82061 | 33107 ft | 569 kts | 82° |
| 2026-05-08 13:16 | 34.43306 | -90.72495 | 33108 ft | 569 kts | 82° |
| 2026-05-08 13:17 | 34.44492 | -90.62931 | 33111 ft | 569 kts | 82° |
| 2026-05-08 13:17 | 34.45678 | -90.53304 | 33114 ft | 570 kts | 82° |
| 2026-05-08 13:18 | 34.46858 | -90.43661 | 33117 ft | 570 kts | 82° |
| 2026-05-08 13:18 | 34.48028 | -90.34035 | 33118 ft | 570 kts | 82° |
| 2026-05-08 13:19 | 34.49192 | -90.24391 | 33099 ft | 569 kts | 82° |
| 2026-05-08 13:19 | 34.50343 | -90.14794 | 33098 ft | 569 kts | 82° |
| 2026-05-08 13:20 | 34.51484 | -90.05215 | 33100 ft | 569 kts | 82° |
| 2026-05-08 13:20 | 34.52620 | -89.95605 | 33104 ft | 569 kts | 82° |
| 2026-05-08 13:21 | 34.53753 | -89.85962 | 33108 ft | 569 kts | 82° |
| 2026-05-08 13:21 | 34.54873 | -89.76363 | 33113 ft | 570 kts | 82° |
| 2026-05-08 13:22 | 34.55996 | -89.66671 | 33118 ft | 571 kts | 82° |
| 2026-05-08 13:22 | 34.57107 | -89.57010 | 33125 ft | 571 kts | 82° |
| 2026-05-08 13:23 | 34.58210 | -89.47350 | 33131 ft | 571 kts | 82° |
| 2026-05-08 13:23 | 34.59304 | -89.37685 | 33137 ft | 572 kts | 82° |
| 2026-05-08 13:24 | 34.60389 | -89.28072 | 32283 ft | 564 kts | 83° |
| 2026-05-08 13:24 | 34.60921 | -89.23312 | 31264 ft | 563 kts | 83° |
| 2026-05-08 13:24 | 34.61451 | -89.18569 | 30597 ft | 556 kts | 83° |
| 2026-05-08 13:25 | 34.61969 | -89.13900 | 29998 ft | 551 kts | 83° |
| 2026-05-08 13:25 | 34.62479 | -89.09287 | 29365 ft | 545 kts | 83° |
| 2026-05-08 13:25 | 34.62982 | -89.04720 | 28752 ft | 538 kts | 83° |
| 2026-05-08 13:25 | 34.63481 | -89.00180 | 28180 ft | 532 kts | 83° |
| 2026-05-08 13:26 | 34.63973 | -88.95693 | 27595 ft | 527 kts | 82° |
| 2026-05-08 13:26 | 34.64458 | -88.91253 | 27155 ft | 521 kts | 82° |
| 2026-05-08 13:26 | 34.64934 | -88.86871 | 26774 ft | 515 kts | 82° |
| 2026-05-08 13:26 | 34.65411 | -88.82479 | 26370 ft | 510 kts | 82° |
| 2026-05-08 13:27 | 34.65874 | -88.78196 | 25979 ft | 505 kts | 82° |
| 2026-05-08 13:27 | 34.66333 | -88.73946 | 25605 ft | 501 kts | 82° |
| 2026-05-08 13:27 | 34.66791 | -88.69691 | 25217 ft | 496 kts | 82° |
| 2026-05-08 13:27 | 34.67239 | -88.65505 | 24843 ft | 491 kts | 82° |
| 2026-05-08 13:28 | 34.67681 | -88.61372 | 24474 ft | 487 kts | 82° |
| 2026-05-08 13:28 | 34.68117 | -88.57271 | 24109 ft | 482 kts | 82° |
| 2026-05-08 13:28 | 34.68548 | -88.53194 | 23747 ft | 478 kts | 82° |
| 2026-05-08 13:28 | 34.68973 | -88.49176 | 23387 ft | 474 kts | 82° |
| 2026-05-08 13:29 | 34.69397 | -88.45146 | 23025 ft | 469 kts | 82° |
| 2026-05-08 13:29 | 34.69812 | -88.41190 | 22663 ft | 465 kts | 82° |
| 2026-05-08 13:29 | 34.70223 | -88.37268 | 22292 ft | 462 kts | 82° |
| 2026-05-08 13:29 | 34.70633 | -88.33346 | 21917 ft | 458 kts | 82° |
| 2026-05-08 13:30 | 34.71035 | -88.29479 | 21532 ft | 454 kts | 82° |
| 2026-05-08 13:30 | 34.71435 | -88.25613 | 21144 ft | 451 kts | 82° |
| 2026-05-08 13:30 | 34.71827 | -88.21819 | 20755 ft | 447 kts | 82° |
| 2026-05-08 13:30 | 34.72217 | -88.18031 | 20368 ft | 444 kts | 82° |
| 2026-05-08 13:31 | 34.72604 | -88.14265 | 19983 ft | 441 kts | 82° |
| 2026-05-08 13:31 | 34.72984 | -88.10553 | 19598 ft | 438 kts | 82° |
| 2026-05-08 13:31 | 34.73362 | -88.06854 | 19213 ft | 435 kts | 82° |
| 2026-05-08 13:31 | 34.73734 | -88.03200 | 18832 ft | 432 kts | 82° |
| 2026-05-08 13:32 | 34.74105 | -87.99536 | 18450 ft | 429 kts | 82° |
| 2026-05-08 13:32 | 34.74472 | -87.95907 | 18071 ft | 426 kts | 82° |
| 2026-05-08 13:32 | 34.74838 | -87.92281 | 17693 ft | 423 kts | 82° |
| 2026-05-08 13:32 | 34.75199 | -87.88684 | 17317 ft | 420 kts | 82° |
| 2026-05-08 13:33 | 34.75552 | -87.85165 | 16948 ft | 417 kts | 82° |
| 2026-05-08 13:33 | 34.75906 | -87.81621 | 16578 ft | 414 kts | 82° |
| 2026-05-08 13:33 | 34.76255 | -87.78117 | 16212 ft | 411 kts | 82° |
| 2026-05-08 13:33 | 34.76600 | -87.74646 | 15848 ft | 408 kts | 82° |
| 2026-05-08 13:34 | 34.76946 | -87.71156 | 15479 ft | 405 kts | 81° |
| 2026-05-08 13:34 | 34.77281 | -87.67767 | 15118 ft | 402 kts | 81° |
| 2026-05-08 13:34 | 34.77617 | -87.64357 | 14753 ft | 399 kts | 81° |
| 2026-05-08 13:34 | 34.77951 | -87.60967 | 14389 ft | 397 kts | 81° |
| 2026-05-08 13:35 | 34.78282 | -87.57584 | 14025 ft | 394 kts | 81° |
| 2026-05-08 13:35 | 34.78607 | -87.54259 | 13667 ft | 391 kts | 81° |
| 2026-05-08 13:35 | 34.78928 | -87.50953 | 13309 ft | 388 kts | 81° |
| 2026-05-08 13:35 | 34.79247 | -87.47664 | 12954 ft | 385 kts | 81° |
| 2026-05-08 13:36 | 34.79565 | -87.44397 | 12600 ft | 383 kts | 81° |
| 2026-05-08 13:36 | 34.79880 | -87.41151 | 12256 ft | 380 kts | 81° |
| 2026-05-08 13:36 | 34.80189 | -87.37939 | 11915 ft | 377 kts | 81° |
| 2026-05-08 13:36 | 34.80497 | -87.34736 | 11572 ft | 374 kts | 82° |
| 2026-05-08 13:37 | 34.80804 | -87.31552 | 11212 ft | 371 kts | 82° |
| 2026-05-08 13:37 | 34.81106 | -87.28414 | 10884 ft | 367 kts | 82° |
| 2026-05-08 13:37 | 34.81401 | -87.25362 | 10834 ft | 353 kts | 82° |
| 2026-05-08 13:37 | 34.81684 | -87.22412 | 10776 ft | 340 kts | 82° |
| 2026-05-08 13:38 | 34.81955 | -87.19572 | 10706 ft | 327 kts | 82° |
| 2026-05-08 13:38 | 34.82219 | -87.16814 | 10641 ft | 314 kts | 82° |
| 2026-05-08 13:38 | 34.82468 | -87.14208 | 10502 ft | 305 kts | 82° |
| 2026-05-08 13:38 | 34.82715 | -87.11634 | 10236 ft | 301 kts | 81° |
| 2026-05-08 13:39 | 34.82962 | -87.09097 | 9954 ft | 297 kts | 81° |
| 2026-05-08 13:39 | 34.83207 | -87.06589 | 9663 ft | 294 kts | 81° |
| 2026-05-08 13:39 | 34.83454 | -87.04077 | 9367 ft | 291 kts | 81° |
| 2026-05-08 13:39 | 34.83699 | -87.01613 | 9112 ft | 285 kts | 81° |
| 2026-05-08 13:40 | 34.83935 | -86.99240 | 8670 ft | 280 kts | 81° |
| 2026-05-08 13:40 | 34.84176 | -86.96854 | 7815 ft | 279 kts | 81° |
| 2026-05-08 13:40 | 34.84412 | -86.94530 | 7128 ft | 272 kts | 81° |
| 2026-05-08 13:40 | 34.84647 | -86.92250 | 6422 ft | 267 kts | 81° |
| 2026-05-08 13:41 | 34.84881 | -86.89997 | 5716 ft | 262 kts | 81° |
| 2026-05-08 13:41 | 34.85112 | -86.87807 | 5026 ft | 256 kts | 81° |
| 2026-05-08 13:41 | 34.85342 | -86.85664 | 4341 ft | 250 kts | 81° |
| 2026-05-08 13:41 | 34.85570 | -86.83578 | 3684 ft | 246 kts | 81° |
| 2026-05-08 13:42 | 34.85791 | -86.81589 | 3558 ft | 234 kts | 81° |
| 2026-05-08 13:42 | 34.86007 | -86.79652 | 3553 ft | 218 kts | 81° |
| 2026-05-08 13:42 | 34.86170 | -86.77892 | 3616 ft | 198 kts | 90° |
| 2026-05-08 13:42 | 34.85632 | -86.76434 | 3636 ft | 199 kts | 135° |
| 2026-05-08 13:43 | 34.84365 | -86.75857 | 3730 ft | 200 kts | 179° |
| 2026-05-08 13:43 | 34.83100 | -86.76505 | 3784 ft | 198 kts | 221° |
| 2026-05-08 13:43 | 34.82050 | -86.77561 | 3891 ft | 196 kts | 205° |
| 2026-05-08 13:43 | 34.80712 | -86.77839 | 3675 ft | 195 kts | 182° |
| 2026-05-08 13:44 | 34.79385 | -86.77913 | 3419 ft | 189 kts | 181° |
| 2026-05-08 13:44 | 34.78073 | -86.77949 | 3159 ft | 184 kts | 180° |
| 2026-05-08 13:44 | 34.76823 | -86.77978 | 2912 ft | 179 kts | 180° |
| 2026-05-08 13:44 | 34.75588 | -86.78003 | 2658 ft | 176 kts | 180° |
| 2026-05-08 13:45 | 34.74356 | -86.78027 | 2383 ft | 174 kts | 180° |
| 2026-05-08 13:45 | 34.73155 | -86.78050 | 2122 ft | 171 kts | 180° |
| 2026-05-08 13:45 | 34.72012 | -86.78072 | 1905 ft | 156 kts | 179° |
| 2026-05-08 13:45 | 34.70950 | -86.78094 | 1570 ft | 150 kts | 179° |
| 2026-05-08 13:46 | 34.69945 | -86.78101 | 1368 ft | 134 kts | 178° |
| 2026-05-08 13:46 | 34.69029 | -86.78086 | 1264 ft | 131 kts | 180° |
| 2026-05-08 13:46 | 34.68139 | -86.78123 | 1248 ft | 126 kts | 182° |
| 2026-05-08 13:46 | 34.67271 | -86.78164 | 1096 ft | 123 kts | 182° |
| 2026-05-08 13:47 | 34.66401 | -86.78186 | 959 ft | 125 kts | 180° |
| 2026-05-08 13:47 | 34.65521 | -86.78201 | 778 ft | 128 kts | 181° |
| 2026-05-08 13:47 | 34.64632 | -86.78219 | 632 ft | 125 kts | 180° |
| 2026-05-08 13:47 | 34.63899 | -86.78237 | 623 ft | 76 kts | 180° |
| 2026-05-08 13:48 | 34.63557 | -86.78243 | 619 ft | 26 kts | 176° |
| 2026-05-08 13:48 | 34.63470 | -86.78192 | 617 ft | 12 kts | 116° |
| 2026-05-08 13:48 | 34.63467 | -86.78101 | 618 ft | 9 kts | 88° |
| 2026-05-08 13:48 | 34.63475 | -86.78029 | 618 ft | 8 kts | 56° |
| 2026-05-08 13:49 | 34.63525 | -86.78002 | 619 ft | 8 kts | 12° |
| 2026-05-08 13:49 | 34.63582 | -86.77995 | 620 ft | 8 kts | 0° |
| 2026-05-08 13:49 | 34.63648 | -86.77994 | 620 ft | 10 kts | 0° |
| 2026-05-08 13:49 | 34.63729 | -86.77994 | 621 ft | 12 kts | 1° |
| 2026-05-08 13:50 | 34.63823 | -86.77992 | 622 ft | 14 kts | 2° |
| 2026-05-08 13:50 | 34.63942 | -86.77988 | 623 ft | 19 kts | 0° |
| 2026-05-08 13:50 | 34.64096 | -86.77985 | 624 ft | 23 kts | 1° |
| 2026-05-08 13:50 | 34.64267 | -86.77981 | 624 ft | 23 kts | 0° |
| 2026-05-08 13:51 | 34.64384 | -86.77902 | 623 ft | 19 kts | 50° |
| 2026-05-08 13:51 | 34.64471 | -86.77772 | 620 ft | 19 kts | 50° |
| 2026-05-08 13:51 | 34.64558 | -86.77651 | 618 ft | 17 kts | 21° |
| 2026-05-08 13:51 | 34.64609 | -86.77595 | 617 ft | 7 kts | 88° |
| 2026-05-08 13:52 | 34.64609 | -86.77556 | 616 ft | 3 kts | 90° |
| 2026-05-08 13:52 | 34.64609 | -86.77554 | 616 ft | 0 kts | 90° |